Aérodrome :
LOGIN :

S'inscrire | Disclaimer

   EN    FR    IT 

 










Légende :    VFR   VFR Marginal   IFR   IFR Intensif   IFR Très Intensif
Visi : 
Plafond : 
>= 8 km
>= 3000ft
5 à 8 km
1000 à 3000 ft
1500m à 5 km
500 à 1000 ft
800 à 1500m
200 à 500 ft
< 800m
< 200 ft
Symboles :   Orages  Brouillard  Fortes neiges  Fortes précipitations  Vent > 20 kt
SIGMETs :   Divers  Orages  Givrage  Turbulence  Onde Orograph.  Cendres Volcan.







- Altitude de l'aérodrome : 12 ft
- Code IATA : BCN


LEBL - Barcelone

DERNIER METAR :
  • 212030Z 05016KT 020V080 CAVOK 17/09 Q1009 NOSIG

METARs EXPIRÉS :
  • 212000Z 06016KT CAVOK 17/09 Q1009 NOSIG
  • 211930Z 05013KT CAVOK 16/09 Q1008 NOSIG
  • 211900Z 06016KT CAVOK 16/10 Q1008 NOSIG
  • 211830Z 07015KT 040V100 9999 FEW030 16/11 Q1008 NOSIG
  • 211800Z 07017KT 9999 FEW030 16/11 Q1008 NOSIG

TAF TAF LEBL
Valide du 21 à 18h jusqu'au 22 à 18h UTC


211700Z 2118/2218 06020KT 9999 FEW040 TX20/2212Z TN14/2206Z
PROB40
TEMPO 2203/2215 06020G30KT
PROB30
TEMPO 2122/2210 4000 TSRA SCT025CB BKN040
Pas de NOTAMs connus pour ce terrain.
1 SIGMET publié pour la FIR Barcelona (LECB) :
 
Orages noyés dans la masse
LECB SIGMET 7 VALID 212001/212200 LEVA
LECB BARCELONA FIR/UIR EMBD TS OBS AT 2001Z WI N3939 E00011 - N3812 E00106 - N3736 W00012 - N3922 W00050 - N3939 E00011 TOP FL340 MOV N NC=



MET'MAP, la Météo Aéronautique d'un coup d'oeil ! - Copyright ORBIFLY Décembre 2007 - Disclaimer

ORBIFLY MET'MAP TEAM :

Programmation & Développement : Alexandra Zaïnal
Conception & Développement : Baudouin d'Aumeries
Co-Programmation & Développement : Marc-Olivier Méhu
Soutien technique & logistique : Manuel Goepfert

Contact : metmap@orbifly.com




SOURCES & CREDITS :

   NOAA